Time;durP1;ratioP1;P1;durP2;ratioP2;P2;SDS_P1;SDS_P2;PMS_P1;PMS_P2;Temp;Humidity;BMP_temperature;BMP_pressure;BME280_temperature;BME280_humidity;BME280_pressure;Samples;Min_cycle;Max_cycle;Signal;HPM_P1;HPM_P2
2022/06/16 00:01:01;;;;;;;9.43;4.97;;;15.50;99.90;;;;;;5075426;28;20530;-65
2022/06/16 00:03:27;;;;;;;9.25;4.97;;;15.50;99.90;;;;;;5075445;28;20017;-65
2022/06/16 00:05:53;;;;;;;8.43;5.13;;;15.40;99.90;;;;;;5074487;28;20082;-65
2022/06/16 00:08:19;;;;;;;10.13;5.05;;;15.30;99.90;;;;;;5075586;28;20043;-65
2022/06/16 00:11:19;;;;;;;7.78;5.15;;;15.30;99.90;;;;;;5075584;28;20032;-65
2022/06/16 00:13:35;;;;;;;13.93;5.30;;;15.30;99.90;;;;;;5075118;28;20063;-65
2022/06/16 00:16:02;;;;;;;8.35;5.20;;;15.20;99.90;;;;;;5075152;28;20028;-65
2022/06/16 00:18:28;;;;;;;11.88;5.15;;;15.20;99.90;;;;;;5075157;28;20033;-65
2022/06/16 00:20:53;;;;;;;10.05;4.72;;;15.20;99.90;;;;;;5075259;28;20063;-65
2022/06/16 00:23:19;;;;;;;11.25;4.88;;;15.20;99.90;;;;;;5075272;28;20048;-65
2022/06/16 00:25:45;;;;;;;6.13;4.45;;;15.20;99.90;;;;;;5075382;28;20040;-65
2022/06/16 00:28:10;;;;;;;6.95;4.72;;;15.20;99.90;;;;;;5075010;28;20024;-65
2022/06/16 00:30:36;;;;;;;9.35;5.03;;;15.10;99.90;;;;;;5074888;28;20494;-65
2022/06/16 00:33:02;;;;;;;11.15;4.93;;;15.10;99.90;;;;;;5075094;28;20024;-65
2022/06/16 00:35:28;;;;;;;10.30;4.60;;;15.10;99.90;;;;;;5074811;28;20039;-65
2022/06/16 00:37:53;;;;;;;7.15;4.47;;;15.10;99.90;;;;;;5074975;28;20032;-65
2022/06/16 00:40:19;;;;;;;6.10;4.40;;;15.00;99.90;;;;;;5074606;28;20056;-65
2022/06/16 00:42:45;;;;;;;9.43;4.85;;;14.90;99.90;;;;;;5074656;28;20028;-65
2022/06/16 00:45:49;;;;;;;9.68;4.25;;;14.90;99.90;;;;;;5074852;28;20020;-65
2022/06/16 00:48:31;;;;;;;8.07;4.53;;;14.80;99.90;;;;;;5074485;28;20021;-65
2022/06/16 00:51:10;;;;;;;8.07;4.80;;;14.80;99.90;;;;;;5074719;28;20502;-65
2022/06/16 00:53:37;;;;;;;9.13;5.03;;;14.70;99.90;;;;;;5074701;28;20524;-64
2022/06/16 00:56:04;;;;;;;6.55;4.15;;;14.60;99.90;;;;;;5074385;28;20027;-65
2022/06/16 00:58:33;;;;;;;8.45;5.07;;;14.70;99.90;;;;;;5074319;28;20030;-64
2022/06/16 01:00:59;;;;;;;8.30;5.05;;;14.70;99.90;;;;;;5074446;28;20035;-65
2022/06/16 01:06:19;;;;;;;7.60;5.05;;;14.70;99.90;;;;;;5074050;28;20055;-65
2022/06/16 01:08:48;;;;;;;10.70;5.53;;;14.70;99.90;;;;;;5074373;28;20368;-64
2022/06/16 01:14:29;;;;;;;8.05;5.68;;;14.60;99.90;;;;;;5073881;28;20100;-65
2022/06/16 01:16:58;;;;;;;;;;;14.60;99.90;;;;;;5074656;28;20029;-65
2022/06/16 01:22:09;;;;;;;10.15;6.03;;;14.60;99.90;;;;;;5111271;27;20742;-66
2022/06/16 01:25:02;;;;;;;9.15;5.43;;;14.60;99.90;;;;;;5111087;28;20114;-65
2022/06/16 01:27:54;;;;;;;10.90;6.03;;;14.60;99.90;;;;;;5110952;28;20558;-66
2022/06/16 01:30:31;;;;;;;11.10;5.03;;;14.50;99.90;;;;;;5110830;28;20027;-65
2022/06/16 01:33:12;;;;;;;7.55;5.15;;;14.50;99.90;;;;;;5110023;28;20432;-66
2022/06/16 01:36:07;;;;;;;9.20;5.47;;;14.40;99.90;;;;;;5111117;28;20393;-65
2022/06/16 01:38:46;;;;;;;9.13;5.20;;;14.30;99.90;;;;;;5110727;28;20083;-66
2022/06/16 01:41:39;;;;;;;8.88;5.20;;;14.20;99.90;;;;;;5110937;28;20035;-65
2022/06/16 01:44:15;;;;;;;10.57;6.05;;;14.10;99.90;;;;;;5110691;28;20019;-66
2022/06/16 01:46:44;;;;;;;10.48;5.57;;;14.00;99.90;;;;;;5110916;28;20111;-65
2022/06/16 01:49:19;;;;;;;11.00;5.45;;;14.00;99.90;;;;;;5110638;28;20016;-65
2022/06/16 01:51:54;;;;;;;10.43;5.32;;;14.00;99.90;;;;;;5110792;28;20481;-66
2022/06/16 01:54:29;;;;;;;7.45;5.32;;;14.00;99.90;;;;;;5110749;28;20432;-65
2022/06/16 01:57:01;;;;;;;9.85;5.28;;;13.90;99.90;;;;;;5110702;28;20031;-65
2022/06/16 01:59:33;;;;;;;7.50;5.07;;;14.00;99.90;;;;;;5110639;28;20024;-66
2022/06/16 02:02:05;;;;;;;8.32;4.95;;;14.00;99.90;;;;;;5110544;28;20444;-65
2022/06/16 02:04:37;;;;;;;6.88;5.05;;;13.90;99.90;;;;;;5110349;28;20428;-66
2022/06/16 02:07:06;;;;;;;11.50;5.43;;;13.90;99.90;;;;;;5110498;28;20024;-65
2022/06/16 02:09:39;;;;;;;7.72;5.32;;;13.90;99.90;;;;;;5110235;28;20383;-65
2022/06/16 02:12:09;;;;;;;;;;;13.90;99.90;;;;;;5110611;28;20023;-65
2022/06/16 02:14:41;;;;;;;8.88;5.35;;;13.90;99.90;;;;;;5110373;28;19926;-65
2022/06/16 02:17:09;;;;;;;10.57;5.30;;;13.80;99.90;;;;;;5110322;28;20031;-66
2022/06/16 02:19:35;;;;;;;9.63;5.43;;;13.80;99.90;;;;;;5109958;28;20024;-66
2022/06/16 02:22:02;;;;;;;8.02;5.15;;;13.80;99.90;;;;;;5110189;28;20036;-65
2022/06/16 02:24:30;;;;;;;7.20;5.55;;;13.80;99.90;;;;;;5110196;28;20024;-66
2022/06/16 02:26:58;;;;;;;8.15;5.32;;;13.90;99.90;;;;;;5110083;28;20024;-66
2022/06/16 02:29:37;;;;;;;8.05;5.25;;;13.90;99.90;;;;;;5109768;28;20028;-65
2022/06/16 02:32:31;;;;;;;10.60;5.50;;;13.90;99.90;;;;;;5102932;28;20024;-65
2022/06/16 02:38:07;;;;;;;9.35;5.35;;;13.90;99.90;;;;;;5111158;27;20381;-66
2022/06/16 02:40:52;;;;;;;;;;;13.90;99.90;;;;;;5111732;28;20031;-65
2022/06/16 02:43:37;;;;;;;10.88;6.25;;;13.90;99.90;;;;;;5110970;28;19911;-66
2022/06/16 02:46:14;;;;;;;10.15;5.45;;;14.00;99.90;;;;;;5111225;28;20473;-65
2022/06/16 02:48:48;;;;;;;8.05;5.47;;;14.00;99.90;;;;;;5111173;28;20027;-66
2022/06/16 02:51:20;;;;;;;9.98;5.75;;;14.00;99.90;;;;;;5111020;28;20027;-66
2022/06/16 02:54:10;;;;;;;9.20;5.67;;;14.00;99.90;;;;;;5110940;28;20024;-66
2022/06/16 02:57:07;;;;;;;10.35;5.70;;;14.00;99.90;;;;;;5109761;28;20312;-65
2022/06/16 02:59:38;;;;;;;9.20;5.47;;;14.00;99.90;;;;;;5110596;28;20024;-66
2022/06/16 03:02:08;;;;;;;10.85;6.22;;;14.10;99.90;;;;;;5110919;28;20030;-65
2022/06/16 03:04:37;;;;;;;9.52;5.43;;;14.00;99.90;;;;;;5110620;28;20067;-66
2022/06/16 03:07:03;;;;;;;10.90;5.22;;;13.90;99.90;;;;;;5110775;28;20028;-65
2022/06/16 03:09:29;;;;;;;8.38;5.70;;;13.90;99.90;;;;;;5110783;28;20024;-66
2022/06/16 03:11:55;;;;;;;7.65;5.68;;;13.90;99.90;;;;;;5109257;28;20497;-65
2022/06/16 03:14:20;;;;;;;9.55;5.72;;;13.90;99.90;;;;;;5110478;28;20098;-66
2022/06/16 03:16:46;;;;;;;12.90;5.47;;;13.90;99.90;;;;;;5110357;28;20538;-66
2022/06/16 03:19:12;;;;;;;8.45;5.35;;;14.00;99.90;;;;;;5110302;28;20023;-66
2022/06/16 03:21:37;;;;;;;9.85;5.20;;;14.00;99.90;;;;;;5110552;28;20067;-65
2022/06/16 03:24:03;;;;;;;10.35;5.60;;;13.90;99.90;;;;;;5110513;28;20385;-65
2022/06/16 03:26:29;;;;;;;9.10;5.43;;;13.90;99.90;;;;;;5110201;28;20096;-66
2022/06/16 03:28:55;;;;;;;9.68;6.15;;;13.90;99.90;;;;;;5110370;28;20470;-65
2022/06/16 03:31:21;;;;;;;8.27;5.60;;;13.90;99.90;;;;;;5110346;28;20401;-66
2022/06/16 03:33:47;;;;;;;9.70;5.85;;;13.90;99.90;;;;;;5110031;28;20024;-66
2022/06/16 03:36:13;;;;;;;10.20;6.38;;;13.80;99.90;;;;;;5109795;28;20043;-66
2022/06/16 03:38:45;;;;;;;9.50;5.55;;;13.70;99.90;;;;;;5110211;28;20019;-65
2022/06/16 03:41:12;;;;;;;11.13;6.18;;;13.70;99.90;;;;;;5110155;28;20058;-65
2022/06/16 03:43:38;;;;;;;11.63;5.90;;;13.50;99.90;;;;;;5108965;28;20481;-66
2022/06/16 03:46:04;;;;;;;9.35;5.72;;;13.60;99.90;;;;;;5109793;28;20032;-66
2022/06/16 03:48:31;;;;;;;11.88;6.47;;;13.50;99.90;;;;;;5100241;28;20043;-66
2022/06/16 03:50:57;;;;;;;7.68;6.10;;;13.30;99.90;;;;;;5096190;28;20024;-65
2022/06/16 03:53:22;;;;;;;10.32;5.82;;;13.30;99.90;;;;;;5096168;28;20032;-66
2022/06/16 03:55:48;;;;;;;6.90;5.63;;;13.40;99.90;;;;;;5096255;28;20028;-65
2022/06/16 03:58:14;;;;;;;10.05;6.28;;;13.40;99.90;;;;;;5094808;28;20020;-65
2022/06/16 04:00:41;;;;;;;10.05;5.90;;;13.40;99.90;;;;;;5096225;28;20386;-66
2022/06/16 04:05:53;;;;;;;13.00;6.65;;;13.30;99.90;;;;;;5095680;28;20016;-66
2022/06/16 04:08:19;;;;;;;9.63;6.55;;;13.20;99.90;;;;;;5096061;28;20033;-65
2022/06/16 04:10:46;;;;;;;9.07;6.50;;;13.20;99.90;;;;;;5096033;28;20028;-66
2022/06/16 04:13:12;;;;;;;10.35;7.07;;;13.20;99.90;;;;;;5095979;28;20035;-65
2022/06/16 04:15:38;;;;;;;14.57;5.90;;;13.20;99.90;;;;;;5095849;28;20547;-65
2022/06/16 04:18:04;;;;;;;12.55;6.38;;;13.30;99.90;;;;;;5095878;28;20016;-65
2022/06/16 04:20:31;;;;;;;8.32;6.13;;;13.30;99.90;;;;;;5095808;28;20107;-66
2022/06/16 04:22:56;;;;;;;9.63;6.32;;;13.40;99.90;;;;;;5095800;28;20032;-66
2022/06/16 04:25:31;;;;;;;12.77;6.53;;;13.40;99.90;;;;;;5094567;28;20527;-65
2022/06/16 04:27:59;;;;;;;8.05;5.93;;;13.60;99.90;;;;;;5095676;28;20039;-65
2022/06/16 04:30:26;;;;;;;9.48;6.57;;;13.50;99.90;;;;;;5095396;28;20027;-65
2022/06/16 04:32:52;;;;;;;12.40;6.50;;;13.60;99.90;;;;;;5095597;28;20035;-65
2022/06/16 04:35:18;;;;;;;8.57;5.95;;;13.60;99.90;;;;;;5095527;28;20024;-66
2022/06/16 04:37:44;;;;;;;9.13;6.03;;;13.70;99.90;;;;;;5094982;28;20040;-66
2022/06/16 04:40:10;;;;;;;10.80;6.15;;;13.90;99.90;;;;;;5095516;28;20024;-65
2022/06/16 04:42:36;;;;;;;8.57;5.72;;;14.00;99.90;;;;;;5095417;28;20144;-65
2022/06/16 04:45:02;;;;;;;9.45;5.72;;;14.10;99.90;;;;;;5095355;28;20477;-65
2022/06/16 04:47:27;;;;;;;11.68;5.90;;;14.00;99.90;;;;;;5095084;28;20020;-66
2022/06/16 04:49:53;;;;;;;9.68;5.68;;;14.00;99.90;;;;;;5095281;28;20032;-65
2022/06/16 04:52:19;;;;;;;12.70;5.78;;;14.10;99.90;;;;;;5095049;28;20036;-66
2022/06/16 04:54:45;;;;;;;11.60;5.88;;;14.20;99.90;;;;;;5094924;28;20053;-65
2022/06/16 04:57:12;;;;;;;8.85;5.47;;;14.30;99.90;;;;;;5095022;28;20055;-65
2022/06/16 04:59:38;;;;;;;12.30;6.22;;;14.50;99.90;;;;;;5094087;28;20067;-65
2022/06/16 05:02:04;;;;;;;8.88;4.65;;;15.20;99.90;;;;;;5076559;28;20039;-65
2022/06/16 05:04:30;;;;;;;7.95;4.65;;;16.30;99.90;;;;;;5093636;28;20024;-65
2022/06/16 05:06:56;;;;;;;8.40;4.13;;;17.70;99.90;;;;;;5094740;28;20020;-66
2022/06/16 05:09:23;;;;;;;7.15;4.45;;;18.60;99.90;;;;;;5094883;28;20035;-65
2022/06/16 05:11:49;;;;;;;7.32;4.10;;;18.80;99.90;;;;;;5094842;28;20563;-66
2022/06/16 05:14:15;;;;;;;6.28;3.70;;;18.80;99.90;;;;;;5094630;28;20030;-66
2022/06/16 05:16:41;;;;;;;7.25;4.03;;;19.10;99.90;;;;;;5094674;28;20031;-65
2022/06/16 05:19:06;;;;;;;6.47;3.42;;;19.20;99.90;;;;;;5094442;28;20028;-65
2022/06/16 05:21:32;;;;;;;9.52;3.60;;;18.80;99.90;;;;;;5094358;28;20433;-65
2022/06/16 05:23:57;;;;;;;5.88;3.38;;;19.20;99.90;;;;;;5094366;28;20070;-66
2022/06/16 05:26:23;;;;;;;6.30;3.25;;;20.90;99.90;;;;;;5094357;28;20397;-66
2022/06/16 05:28:48;;;;;;;5.88;3.47;;;21.00;99.90;;;;;;5094346;28;20032;-66
2022/06/16 05:31:14;;;;;;;8.57;3.50;;;21.60;98.80;;;;;;5094268;28;20027;-66
2022/06/16 05:33:40;;;;;;;4.18;2.90;;;21.60;97.90;;;;;;5094153;28;20420;-66
2022/06/16 05:36:09;;;;;;;5.07;2.78;;;22.10;95.80;;;;;;5094017;28;20043;-66
2022/06/16 05:38:35;;;;;;;6.30;3.38;;;21.70;96.90;;;;;;5094065;28;20027;-66
2022/06/16 05:41:06;;;;;;;4.55;3.08;;;21.40;96.60;;;;;;5094331;28;20530;-66
2022/06/16 05:43:31;;;;;;;6.25;3.53;;;20.90;97.30;;;;;;5094240;28;20107;-66
2022/06/16 05:45:59;;;;;;;4.72;3.13;;;21.30;97.40;;;;;;5093984;28;20063;-66
2022/06/16 05:48:25;;;;;;;4.75;3.38;;;21.90;95.30;;;;;;5094163;28;20482;-66
2022/06/16 05:50:50;;;;;;;6.05;2.90;;;22.50;95.10;;;;;;5094139;28;20032;-66
2022/06/16 05:53:16;;;;;;;5.82;3.25;;;22.90;94.40;;;;;;5094113;28;20047;-66
2022/06/16 05:55:42;;;;;;;4.03;2.90;;;22.60;94.40;;;;;;5093948;28;20028;-66
2022/06/16 05:58:08;;;;;;;7.70;3.30;;;23.00;93.50;;;;;;5094026;28;20052;-66
2022/06/16 06:00:43;;;;;;;5.75;2.78;;;22.90;93.00;;;;;;5093764;28;20052;-66
2022/06/16 06:03:08;;;;;;;6.95;2.75;;;23.20;92.90;;;;;;5093974;28;20024;-66
2022/06/16 06:05:34;;;;;;;5.72;2.67;;;23.80;92.00;;;;;;5093883;28;20108;-66
2022/06/16 06:16:29;;;;;;;4.50;2.30;;;22.40;90.60;;;;;;5093219;28;20062;-65
2022/06/16 06:18:57;;;;;;;6.78;2.88;;;23.20;91.50;;;;;;5093438;28;20026;-66
2022/06/16 06:24:11;;;;;;;4.35;2.90;;;23.30;90.70;;;;;;5093221;28;20099;-66
2022/06/16 06:26:38;;;;;;;6.90;3.13;;;23.60;90.40;;;;;;5093392;28;20031;-66
2022/06/16 06:29:04;;;;;;;4.50;2.22;;;23.30;90.30;;;;;;5093356;28;20027;-66
2022/06/16 06:31:30;;;;;;;6.32;3.00;;;23.90;89.20;;;;;;5093321;28;20119;-66
2022/06/16 06:33:56;;;;;;;5.10;2.47;;;23.50;90.00;;;;;;5093541;28;20059;-66
2022/06/16 06:36:22;;;;;;;5.97;2.40;;;24.70;88.60;;;;;;5091696;28;20040;-65
2022/06/16 06:38:47;;;;;;;3.90;2.75;;;25.40;83.40;;;;;;5093512;28;20020;-65
2022/06/16 06:41:14;;;;;;;4.93;2.83;;;24.60;83.30;;;;;;5093213;28;20031;-65
2022/06/16 06:43:40;;;;;;;6.15;2.55;;;24.40;85.30;;;;;;5091880;28;20032;-66
2022/06/16 06:46:06;;;;;;;3.70;2.40;;;24.60;85.60;;;;;;5093396;28;20382;-65
2022/06/16 06:48:32;;;;;;;5.38;2.35;;;24.70;83.40;;;;;;5092251;28;20032;-65
2022/06/16 06:50:57;;;;;;;6.38;2.50;;;25.50;81.20;;;;;;5093137;28;20027;-65
2022/06/16 06:53:23;;;;;;;4.13;2.30;;;25.50;80.80;;;;;;5093107;28;20487;-65
2022/06/16 06:55:49;;;;;;;7.57;2.80;;;25.70;78.30;;;;;;5093048;28;20028;-65
2022/06/16 06:58:18;;;;;;;5.00;2.45;;;25.40;79.90;;;;;;5093330;28;20024;-65
2022/06/16 07:00:44;;;;;;;5.55;2.70;;;25.60;79.20;;;;;;5093282;28;20482;-65
2022/06/16 07:03:10;;;;;;;4.10;2.38;;;26.00;77.60;;;;;;5093309;28;20017;-66
2022/06/16 07:05:37;;;;;;;5.65;2.42;;;26.60;75.60;;;;;;5092985;28;20606;-65
2022/06/16 07:08:03;;;;;;;5.10;2.40;;;27.10;72.90;;;;;;5092938;28;20504;-65
2022/06/16 07:10:29;;;;;;;5.30;2.33;;;25.70;73.10;;;;;;5093256;28;20493;-65
2022/06/16 07:12:54;;;;;;;3.22;2.30;;;26.10;73.90;;;;;;5092945;28;20028;-66
2022/06/16 07:15:21;;;;;;;4.93;2.40;;;26.00;74.40;;;;;;5093175;28;20059;-66
2022/06/16 07:17:47;;;;;;;3.08;1.92;;;26.50;71.90;;;;;;5093107;28;20028;-66
2022/06/16 07:20:15;;;;;;;5.32;2.25;;;26.60;73.50;;;;;;5092766;28;20016;-66
2022/06/16 07:22:42;;;;;;;4.88;2.30;;;26.40;70.20;;;;;;5093716;28;20505;-65
2022/06/16 07:25:08;;;;;;;4.03;2.22;;;27.10;71.10;;;;;;5095398;28;20024;-65
2022/06/16 07:27:34;;;;;;;5.82;2.15;;;26.70;70.20;;;;;;5096755;28;20020;-66
2022/06/16 07:29:59;;;;;;;4.03;1.77;;;26.90;70.50;;;;;;5096635;28;20383;-65
2022/06/16 07:32:25;;;;;;;4.70;2.30;;;26.60;68.10;;;;;;5096559;28;20024;-65
2022/06/16 07:34:51;;;;;;;4.47;2.08;;;25.90;71.20;;;;;;5096542;28;20097;-65
2022/06/16 07:37:18;;;;;;;5.20;2.30;;;26.20;69.30;;;;;;5096189;28;20543;-65
2022/06/16 07:39:43;;;;;;;4.43;2.47;;;26.80;67.60;;;;;;5096373;28;20023;-65
2022/06/16 07:42:10;;;;;;;6.65;2.70;;;27.40;68.40;;;;;;5096615;28;20382;-66
2022/06/16 07:44:36;;;;;;;3.97;2.42;;;28.40;65.20;;;;;;5096551;28;20428;-65
2022/06/16 07:47:03;;;;;;;4.68;2.50;;;28.30;65.00;;;;;;5096483;28;20039;-65
2022/06/16 07:49:29;;;;;;;4.20;2.30;;;27.50;65.80;;;;;;5096468;28;20070;-65
2022/06/16 07:51:57;;;;;;;6.03;2.63;;;28.10;65.90;;;;;;5096399;28;20486;-66
2022/06/16 07:54:24;;;;;;;4.13;2.20;;;26.90;66.30;;;;;;5096378;28;20367;-65
2022/06/16 07:56:50;;;;;;;3.63;2.00;;;27.70;66.30;;;;;;5096378;28;20039;-66
2022/06/16 07:59:17;;;;;;;3.90;1.90;;;28.30;65.10;;;;;;5096295;28;20094;-66
2022/06/16 08:01:42;;;;;;;4.13;2.22;;;28.30;63.20;;;;;;5096009;28;20026;-66
2022/06/16 08:04:08;;;;;;;4.55;2.25;;;27.20;62.20;;;;;;5095920;28;20027;-65
2022/06/16 08:06:36;;;;;;;3.92;2.17;;;26.50;65.10;;;;;;5096119;28;20020;-66
2022/06/16 08:09:04;;;;;;;4.15;2.17;;;26.70;64.10;;;;;;5096068;28;20028;-65
2022/06/16 08:14:16;;;;;;;5.85;2.40;;;26.50;64.80;;;;;;5095586;28;20103;-66
2022/06/16 08:16:43;;;;;;;4.55;2.20;;;27.40;64.50;;;;;;5095873;28;20417;-66
2022/06/16 08:19:08;;;;;;;3.55;2.00;;;28.00;61.60;;;;;;5095625;28;20073;-66
2022/06/16 08:21:34;;;;;;;2.40;2.00;;;28.00;62.40;;;;;;5095586;28;20031;-66
2022/06/16 08:24:00;;;;;;;4.40;2.15;;;27.40;60.30;;;;;;5095492;28;20107;-65
2022/06/16 08:26:26;;;;;;;3.90;1.75;;;26.20;62.90;;;;;;5095744;28;20024;-66
2022/06/16 08:28:53;;;;;;;4.63;2.00;;;27.00;64.60;;;;;;5095509;28;20035;-65
2022/06/16 08:31:21;;;;;;;3.30;2.38;;;26.30;61.90;;;;;;5094227;28;20024;-65
2022/06/16 08:33:49;;;;;;;4.47;2.30;;;26.20;63.00;;;;;;5095373;28;20055;-66
2022/06/16 08:36:15;;;;;;;3.85;2.10;;;26.40;64.20;;;;;;5095172;28;20513;-65
2022/06/16 08:38:41;;;;;;;3.92;1.92;;;26.10;63.30;;;;;;5095552;28;20028;-65
2022/06/16 08:41:11;;;;;;;5.75;2.08;;;26.20;63.00;;;;;;5095463;28;20020;-65
2022/06/16 08:44:03;;;;;;;7.05;2.17;;;26.10;63.10;;;;;;5095414;28;20031;-66
2022/06/16 08:46:35;;;;;;;3.85;1.40;;;26.60;62.00;;;;;;5095046;28;20028;-65
2022/06/16 08:51:59;;;;;;;5.40;1.50;;;27.30;61.80;;;;;;5090901;28;20404;-66
2022/06/16 08:54:50;;;;;;;3.15;1.30;;;27.60;60.40;;;;;;5090928;28;20036;-65
2022/06/16 08:57:56;;;;;;;2.08;1.15;;;26.40;60.00;;;;;;5090738;28;20115;-66
2022/06/16 09:00:32;;;;;;;4.18;1.13;;;26.40;58.60;;;;;;5090418;28;20199;-66
2022/06/16 09:03:20;;;;;;;4.45;1.50;;;27.60;57.70;;;;;;5090558;28;20016;-66
2022/06/16 09:08:49;;;;;;;2.08;1.20;;;27.70;55.30;;;;;;5111040;27;20385;-65
2022/06/16 09:11:35;;;;;;;2.20;1.02;;;26.60;56.80;;;;;;5111261;28;20028;-66
2022/06/16 09:14:16;;;;;;;1.85;1.20;;;27.20;58.30;;;;;;5109744;28;20103;-66
2022/06/16 09:17:03;;;;;;;1.67;1.00;;;27.80;56.30;;;;;;5110076;28;20028;-66
2022/06/16 09:19:52;;;;;;;2.88;1.10;;;27.80;56.90;;;;;;5109912;28;20028;-63
2022/06/16 09:22:53;;;;;;;2.67;1.20;;;28.40;53.70;;;;;;5111068;28;20032;-66
2022/06/16 09:28:14;;;;;;;4.75;1.20;;;28.80;53.40;;;;;;5111061;27;20437;-65
2022/06/16 09:30:42;;;;;;;3.00;0.93;;;28.80;54.40;;;;;;5111045;28;20034;-64
2022/06/16 09:33:31;;;;;;;2.47;0.90;;;28.60;53.80;;;;;;5110971;28;20031;-64
2022/06/16 09:36:05;;;;;;;2.08;1.10;;;28.10;54.20;;;;;;5110851;28;20066;-67
2022/06/16 09:38:39;;;;;;;4.60;1.42;;;29.00;54.10;;;;;;5110831;28;20076;-66
2022/06/16 09:44:28;;;;;;;5.53;1.50;;;27.90;54.40;;;;;;5110611;28;20024;-64
2022/06/16 09:47:01;;;;;;;3.78;1.55;;;28.50;56.70;;;;;;5110676;28;20032;-66
2022/06/16 09:49:33;;;;;;;;;;;29.10;54.30;;;;;;5110214;28;20028;-67
2022/06/16 09:52:06;;;;;;;2.33;1.35;;;28.00;54.80;;;;;;5110609;28;19904;-66
2022/06/16 09:54:40;;;;;;;3.80;1.50;;;28.20;55.90;;;;;;5110626;28;20024;-67
2022/06/16 09:57:15;;;;;;;3.28;1.67;;;28.00;55.10;;;;;;5110557;28;20034;-66
2022/06/16 09:59:45;;;;;;;4.13;1.50;;;28.80;56.20;;;;;;5110711;28;20065;-64
2022/06/16 10:02:18;;;;;;;2.35;1.20;;;29.10;56.00;;;;;;5110682;28;20063;-64
2022/06/16 10:04:45;;;;;;;1.80;1.20;;;29.30;52.90;;;;;;5110333;28;20027;-65
2022/06/16 10:07:21;;;;;;;1.13;0.60;;;28.60;54.50;;;;;;5110286;28;20117;-64
2022/06/16 10:10:11;;;;;;;3.10;1.25;;;28.60;53.80;;;;;;5110332;28;20012;-64
2022/06/16 10:13:14;;;;;;;1.15;1.00;;;28.70;50.70;;;;;;5110490;28;20024;-64
2022/06/16 10:15:52;;;;;;;1.67;0.93;;;28.00;52.30;;;;;;5110146;28;20101;-64
2022/06/16 10:18:18;;;;;;;1.75;0.90;;;27.70;52.60;;;;;;5108881;28;20031;-65
2022/06/16 10:20:44;;;;;;;2.88;1.17;;;27.90;52.70;;;;;;5110137;28;20054;-65
2022/06/16 10:23:17;;;;;;;1.52;1.00;;;27.90;52.50;;;;;;5110367;28;20389;-64
2022/06/16 10:25:48;;;;;;;3.67;1.15;;;28.00;52.30;;;;;;5109770;28;20427;-64
2022/06/16 10:28:35;;;;;;;2.40;1.00;;;28.30;54.40;;;;;;5110239;28;20074;-64
2022/06/16 10:31:03;;;;;;;2.90;1.20;;;28.00;52.50;;;;;;5109900;28;20561;-64
2022/06/16 10:33:33;;;;;;;3.97;1.48;;;28.10;52.80;;;;;;5110171;28;20031;-64
2022/06/16 10:36:06;;;;;;;2.10;1.13;;;27.40;54.70;;;;;;5110031;28;20027;-64
2022/06/16 10:38:38;;;;;;;4.10;1.20;;;27.60;54.80;;;;;;5101222;28;20024;-64
2022/06/16 10:41:22;;;;;;;2.67;1.07;;;27.40;54.50;;;;;;5096424;28;20032;-64
2022/06/16 10:43:53;;;;;;;2.42;1.00;;;27.80;54.30;;;;;;5096212;28;20028;-64
2022/06/16 10:46:29;;;;;;;3.13;1.15;;;27.50;55.10;;;;;;5096023;28;20039;-64
2022/06/16 10:49:00;;;;;;;2.03;1.10;;;27.60;54.70;;;;;;5096255;28;20031;-64
2022/06/16 10:51:29;;;;;;;1.50;1.02;;;27.00;55.20;;;;;;5096102;28;20028;-65
2022/06/16 10:54:23;;;;;;;3.92;1.73;;;26.70;56.30;;;;;;5096122;28;20024;-64
2022/06/16 10:56:49;;;;;;;3.65;1.25;;;26.60;55.90;;;;;;5095767;28;20158;-64
2022/06/16 11:02:01;;;;;;;6.55;1.67;;;26.30;58.70;;;;;;5090842;28;20636;-65
2022/06/16 11:04:36;;;;;;;2.88;1.60;;;25.90;58.30;;;;;;5090950;28;20450;-66
2022/06/16 11:07:03;;;;;;;5.65;1.65;;;26.00;59.00;;;;;;5090936;28;20467;-66
2022/06/16 11:09:32;;;;;;;3.90;1.52;;;25.70;58.80;;;;;;5090857;28;20048;-66
2022/06/16 11:12:03;;;;;;;2.80;1.70;;;25.90;59.90;;;;;;5090768;28;20025;-65
2022/06/16 11:14:39;;;;;;;5.75;1.40;;;26.20;57.90;;;;;;5090600;28;20021;-65
2022/06/16 11:17:10;;;;;;;3.17;1.73;;;26.60;58.60;;;;;;5090739;28;20028;-65
2022/06/16 11:19:42;;;;;;;3.15;2.20;;;25.80;59.70;;;;;;5090351;28;20113;-65
2022/06/16 11:22:28;;;;;;;1.85;1.65;;;25.60;60.30;;;;;;5090644;28;20025;-65
2022/06/16 11:25:23;;;;;;;4.95;1.63;;;25.70;60.70;;;;;;5090306;28;20024;-65
2022/06/16 11:27:56;;;;;;;3.53;1.60;;;25.60;61.20;;;;;;5090057;28;20063;-66
2022/06/16 11:30:43;;;;;;;4.40;1.63;;;25.50;63.10;;;;;;5089295;28;20386;-65
2022/06/16 11:36:53;;;;;;;2.80;1.80;;;25.60;62.60;;;;;;5089963;28;20024;-65
2022/06/16 11:39:48;;;;;;;3.25;1.35;;;25.80;63.40;;;;;;5090128;28;20439;-65
2022/06/16 11:42:27;;;;;;;6.10;2.05;;;26.20;64.80;;;;;;5089897;28;20063;-65
2022/06/16 11:45:23;;;;;;;4.25;1.80;;;25.80;61.60;;;;;;5089942;28;20017;-65
2022/06/16 11:48:19;;;;;;;3.45;1.80;;;25.90;63.30;;;;;;5089791;28;20028;-65
2022/06/16 11:50:59;;;;;;;3.45;1.60;;;26.10;62.40;;;;;;5089650;28;20025;-65
2022/06/16 11:53:47;;;;;;;3.17;2.33;;;26.40;63.70;;;;;;5089928;28;20028;-65
2022/06/16 11:56:39;;;;;;;5.13;2.28;;;26.20;64.10;;;;;;5089725;28;20073;-65
2022/06/16 11:59:30;;;;;;;4.22;1.83;;;25.50;61.40;;;;;;5089584;28;20035;-66
2022/06/16 12:02:10;;;;;;;3.70;2.10;;;25.90;62.80;;;;;;5089425;28;20450;-65
2022/06/16 12:04:48;;;;;;;8.23;2.40;;;25.90;63.40;;;;;;5089828;28;20431;-66
2022/06/16 12:07:53;;;;;;;4.90;2.22;;;25.80;62.90;;;;;;5089550;28;20113;-66
2022/06/16 12:13:10;;;;;;;4.60;2.13;;;25.60;65.40;;;;;;5111201;27;20380;-65
2022/06/16 12:15:45;;;;;;;4.22;2.22;;;25.50;63.00;;;;;;5111065;28;20024;-65
2022/06/16 12:18:30;;;;;;;3.20;1.90;;;26.00;63.90;;;;;;5111258;28;20070;-65
2022/06/16 12:21:21;;;;;;;4.05;1.70;;;26.40;63.90;;;;;;5111027;28;20416;-65
2022/06/16 12:23:59;;;;;;;5.00;2.00;;;26.20;63.30;;;;;;5110822;28;20031;-66
2022/06/16 12:26:30;;;;;;;7.75;2.00;;;26.60;64.00;;;;;;5111088;28;20066;-66
2022/06/16 12:29:20;;;;;;;3.40;2.20;;;26.10;62.80;;;;;;5111075;28;20055;-66
2022/06/16 12:32:08;;;;;;;4.15;2.10;;;25.80;62.70;;;;;;5110616;28;20474;-65
2022/06/16 12:34:56;;;;;;;3.08;1.90;;;25.40;63.60;;;;;;5110960;28;20028;-65
2022/06/16 12:37:28;;;;;;;2.78;1.80;;;26.00;63.30;;;;;;5110792;28;20429;-65
2022/06/16 12:40:33;;;;;;;3.08;1.77;;;25.80;64.00;;;;;;5109447;28;20582;-65
2022/06/16 12:43:09;;;;;;;3.90;1.98;;;26.20;63.20;;;;;;5110405;28;20020;-65
2022/06/16 12:45:41;;;;;;;5.28;2.30;;;26.50;61.90;;;;;;5110707;28;20020;-65
2022/06/16 12:48:13;;;;;;;3.35;1.80;;;26.30;62.40;;;;;;5110710;28;20028;-65
2022/06/16 12:50:48;;;;;;;4.38;1.88;;;25.60;63.60;;;;;;5110353;28;20020;-65
2022/06/16 12:53:22;;;;;;;3.55;1.80;;;25.70;63.80;;;;;;5110341;28;20020;-65
2022/06/16 12:55:53;;;;;;;5.28;2.30;;;25.90;64.60;;;;;;5110544;28;20028;-65
2022/06/16 12:58:30;;;;;;;4.00;1.80;;;26.40;63.90;;;;;;5110482;28;20029;-65
2022/06/16 13:01:00;;;;;;;2.30;1.95;;;26.20;64.20;;;;;;5110416;28;20554;-65
2022/06/16 13:03:35;;;;;;;5.57;2.15;;;25.60;63.80;;;;;;5110385;28;20028;-66
2022/06/16 13:06:02;;;;;;;3.88;2.00;;;25.40;65.20;;;;;;5110111;28;20028;-66
2022/06/16 13:08:32;;;;;;;2.58;1.90;;;25.20;64.50;;;;;;5110316;28;20106;-66
2022/06/16 13:11:04;;;;;;;4.43;1.90;;;25.20;64.30;;;;;;5109786;28;20056;-66
2022/06/16 13:13:45;;;;;;;3.72;2.10;;;25.30;64.40;;;;;;5109873;28;20058;-66
2022/06/16 13:16:17;;;;;;;4.15;1.88;;;25.40;64.30;;;;;;5110190;28;20099;-66
2022/06/16 13:18:47;;;;;;;6.18;2.22;;;25.80;65.10;;;;;;5110111;28;20404;-66
2022/06/16 13:21:23;;;;;;;2.85;1.92;;;25.80;63.70;;;;;;5109707;28;20028;-65
2022/06/16 13:23:55;;;;;;;4.68;1.80;;;25.40;62.90;;;;;;5099665;28;20062;-66
2022/06/16 13:26:25;;;;;;;2.78;1.85;;;25.00;63.90;;;;;;5096205;28;20020;-65
2022/06/16 13:29:02;;;;;;;5.15;1.90;;;24.60;63.60;;;;;;5096388;28;20028;-65
2022/06/16 13:31:54;;;;;;;4.35;1.90;;;24.20;65.60;;;;;;5095918;28;20043;-65
2022/06/16 13:34:41;;;;;;;3.88;2.10;;;24.80;65.90;;;;;;5096106;28;20028;-66
2022/06/16 13:37:07;;;;;;;4.07;2.00;;;25.00;63.40;;;;;;5095981;28;20028;-65
2022/06/16 13:39:56;;;;;;;3.75;1.95;;;25.50;63.70;;;;;;5095870;28;20043;-65
2022/06/16 13:43:00;;;;;;;3.05;2.30;;;25.60;63.50;;;;;;5095862;28;20036;-65
2022/06/16 13:51:23;;;;;;;7.05;1.80;;;25.70;63.30;;;;;;5111112;27;20306;-65
2022/06/16 13:53:50;;;;;;;4.57;2.10;;;25.80;63.80;;;;;;5110777;28;20074;-65
2022/06/16 13:56:29;;;;;;;3.33;1.83;;;25.40;63.20;;;;;;5111260;28;20490;-65
2022/06/16 14:01:32;;;;;;;4.78;1.98;;;25.80;62.40;;;;;;5111040;27;20479;-65
2022/06/16 14:06:48;;;;;;;2.65;1.73;;;26.20;62.80;;;;;;5090774;28;20654;-66
2022/06/16 14:12:04;;;;;;;3.10;1.98;;;26.30;64.40;;;;;;5070682;28;20387;-65
2022/06/16 14:20:21;;;;;;;3.53;1.90;;;26.10;62.70;;;;;;5070667;28;20407;-65